Warning: Javascript must be enabled to use all the features on this page!


Page Loading - Please Wait...

Click to hideNews Bulletins

Peak Streamflow for the Nation

USGS 04209000 Chagrin River at Willoughby OH

Lake County, Ohio
Hydrologic Unit Code 04110003
Latitude  41°37'51", Longitude  81°24'13" NAD27
Drainage area 246  square miles
Contributing drainage area 246  square miles
Gage datum 583.02 feet above NAVD88
Output formats
Table
Graph
Tab-separated file
peakfq (watstore) format
Reselect output format
Water
Year
Date Gage
Height
(feet)
Stream-
flow
(cfs)
1913 1913-03-23 10.303 24,5007
1926 1926-09-24 6.203 10,400
1927 1927-01-22 5.703 8,900
1928 1927-12-14 6.903 12,700
1929 1929-01-19 9.403 22,000
1930 1930-01-12 6.303 10,700
1931 1931-06-26 9.903 24,000
1932 1932-03-22 4.503 5,860
1933 1933-03-14 5.603 8,600
1934 1934-03-03 3.803 4,380
1935 1935-08-03 4.803 6,540
1940 1940-04-20 9.106 6,850
1941 1940-12-29 8.54 5,960
1942 1942-05-16 11.90 10,000
1943 1943-03-17 10.20 8,160
1944 1944-04-11 10.50 7,900
1945 1945-05-18 11.12 8,740
1946 1946-06-01 7.73 4,370
1947 1947-06-02 13.70 14,400
1948 1948-03-22 17.95 28,000
1949 1949-05-22 8.29 5,060
1950 1950-02-14 11.60 9,400
1951 1950-12-03 11.52 9,200
1952 1952-01-26 12.06 10,400
1953 1953-01-18 6.85 3,330
1954 1954-03-25 12.53 11,300
1955 1954-10-15 15.22 18,600
1956 1956-05-13 11.07 8,410
1957 1957-05-20 14.74 14,800
1958 1958-08-06 10.03 6,900
1959 1959-01-21 16.73 22,000
1960 1960-03-29 10.14 7,080
1961 1961-04-25 11.84 9,560
1962 1962-02-26 13.24 12,200
1963 1963-03-17 10.81 7,990
1964 1964-03-05 15.33 17,200
1965 1965-01-24 10.07 6,990
1966 1966-02-10 10.56 7,640
1967 1966-12-07 9.49 6,210
1968 1968-01-30 9.84 6,200
1969 1969-05-19 16.833 23,300
1970 1970-03-04 8.16 4,610
1971 1971-02-20 8.30 5,030
1972 1972-06-23 11.68 9,720
1973 1973-06-04 10.21 7,520
1974 1974-04-04 8.84 5,690
1975 1975-08-31 11.17 8,960
1976 1976-07-11 12.71 11,400
1977 1977-02-24 10.492 7,940
1978 1977-12-14 12.24 10,600
1979 1979-09-14 10.28 8,130
1980 1979-12-25 11.92 10,100
1981 1981-02-19 11.30 9,350
1982 1982-02-01   5,6002
1983 1983-05-03 8.16 5,490
1984 1984-05-12 9.87 7,630
1988 1988-03-25 8.69 6,130
1989 1989-05-26 17.14 23,900
1990 1990-05-16 11.32 9,750
1991 1990-12-30 12.47 11,600
1992 1992-08-28 8.01 5,460
1993 1992-12-31 11.13 9,480
1994 1994-08-13 14.41 15,2003
1996 1996-01-19 11.155 9,5002
1997 1997-02-27 14.22 14,900
1998 1998-01-08 9.39 6,970
1999 1999-01-23 7.39 4,480
2002 2002-05-13 7.80 4,960
2003 2003-09-27 8.372 5,660
2004 2004-05-22 9.00 8,050
2005 2005-01-12 12.113 13,400
2006 2006-07-28 14.77 19,100
2007 2007-01-05 13.04 15,300
2008 2008-02-06 14.04 17,400
2009 2009-02-11 10.31 10,100
2010 2010-06-06 9.01 6,410
2011 2011-02-28 16.57 21,400
2012 2012-03-16 10.39 8,140
2013 2012-10-30 13.77 13,700
2014 2013-12-22 11.882 10,400
2015 2015-06-27 12.17 10,900
2016 2015-12-27 8.76 6,080
2017 2017-02-07 13.00 12,200
2018 2018-04-16 12.66 11,600
2019 2019-01-24 9.95 7,540
2020 2020-03-29 12.99R 12,200R
?
  Peak Gage-Height Qualification Codes.
?
  Peak Streamflow Qualification Codes.